createdAt,value
2022-10-06T00:00:40.087Z,988.93
2022-10-06T00:01:40.084Z,988.88
2022-10-06T00:02:40.086Z,988.83
2022-10-06T00:03:40.039Z,988.87
2022-10-06T00:04:40.032Z,988.88
2022-10-06T00:05:40.025Z,988.89
2022-10-06T00:06:40.039Z,988.89
2022-10-06T00:07:40.000Z,988.92
2022-10-06T00:08:40.012Z,988.91
2022-10-06T00:09:39.979Z,988.88
2022-10-06T00:10:39.979Z,988.87
2022-10-06T00:11:39.970Z,988.88
2022-10-06T00:12:39.986Z,988.90
2022-10-06T00:13:39.953Z,988.95
2022-10-06T00:14:39.941Z,988.93
2022-10-06T00:15:39.983Z,988.93
2022-10-06T00:16:39.927Z,988.92
2022-10-06T00:17:39.917Z,988.90
2022-10-06T00:18:39.927Z,988.89
2022-10-06T00:19:39.900Z,988.89
2022-10-06T00:20:39.909Z,988.93
2022-10-06T00:21:39.885Z,988.98
2022-10-06T00:22:39.871Z,988.99
2022-10-06T00:23:39.868Z,988.99
2022-10-06T00:24:39.862Z,989.01
2022-10-06T00:25:39.845Z,989.04
2022-10-06T00:26:39.871Z,989.06
2022-10-06T00:27:39.833Z,989.09
2022-10-06T00:28:39.862Z,989.14
2022-10-06T00:29:39.813Z,989.13
2022-10-06T00:30:39.801Z,989.15
2022-10-06T00:31:39.797Z,989.14
2022-10-06T00:32:39.805Z,989.12
2022-10-06T00:33:39.778Z,989.15
2022-10-06T00:34:39.805Z,989.14
2022-10-06T00:35:39.772Z,989.13
2022-10-06T00:36:39.755Z,989.13
2022-10-06T00:37:39.739Z,989.10
2022-10-06T00:38:39.759Z,989.08
2022-10-06T00:39:39.728Z,989.09
2022-10-06T00:40:39.727Z,989.10
2022-10-06T00:41:39.732Z,989.09
2022-10-06T00:42:39.708Z,989.12
2022-10-06T00:43:39.697Z,989.10
2022-10-06T00:44:39.694Z,989.14
2022-10-06T00:45:39.678Z,989.16
2022-10-06T00:46:39.713Z,989.18
2022-10-06T00:47:39.687Z,989.16
2022-10-06T00:48:39.659Z,989.17
2022-10-06T00:49:39.644Z,989.18
2022-10-06T00:50:39.625Z,989.23
2022-10-06T00:51:39.651Z,989.26
2022-10-06T00:52:39.617Z,989.24
2022-10-06T00:53:39.611Z,989.25
2022-10-06T00:54:39.617Z,989.24
2022-10-06T00:55:39.598Z,989.22
2022-10-06T00:56:39.592Z,989.19
2022-10-06T00:57:39.573Z,989.21
2022-10-06T00:58:39.554Z,989.22
2022-10-06T00:59:39.553Z,989.27
2022-10-06T01:00:39.577Z,989.24
2022-10-06T01:01:39.570Z,989.27
2022-10-06T01:02:39.635Z,989.28
2022-10-06T01:03:39.541Z,989.29
2022-10-06T01:04:39.520Z,989.26
2022-10-06T01:05:39.519Z,989.24
2022-10-06T01:06:39.489Z,989.22
2022-10-06T01:07:39.484Z,989.21
2022-10-06T01:08:39.487Z,989.21
2022-10-06T01:09:39.462Z,989.20
2022-10-06T01:10:39.459Z,989.23
2022-10-06T01:11:39.468Z,989.31
2022-10-06T01:12:39.470Z,989.39
2022-10-06T01:13:39.432Z,989.41
2022-10-06T01:14:39.444Z,989.44
2022-10-06T01:15:39.464Z,989.39
2022-10-06T01:16:39.422Z,989.39
2022-10-06T01:17:39.432Z,989.35
2022-10-06T01:18:39.420Z,989.39
2022-10-06T01:19:39.392Z,989.41
2022-10-06T01:20:39.391Z,989.37
2022-10-06T01:21:39.373Z,989.38
2022-10-06T01:22:39.372Z,989.40
2022-10-06T01:23:39.359Z,989.43
2022-10-06T01:24:39.366Z,989.42
2022-10-06T01:25:39.352Z,989.38
2022-10-06T01:26:39.339Z,989.40
2022-10-06T01:27:39.312Z,989.45
2022-10-06T01:28:39.420Z,989.50
2022-10-06T01:29:39.306Z,989.49
2022-10-06T01:30:39.326Z,989.52
2022-10-06T01:31:39.284Z,989.58
2022-10-06T01:32:39.279Z,989.59
2022-10-06T01:33:39.263Z,989.62
2022-10-06T01:34:39.258Z,989.63
2022-10-06T01:35:39.257Z,989.59
2022-10-06T01:36:39.264Z,989.62
2022-10-06T01:37:39.232Z,989.59
2022-10-06T01:38:39.223Z,989.63
2022-10-06T01:39:39.212Z,989.60
2022-10-06T01:40:39.213Z,989.63
2022-10-06T01:41:39.220Z,989.65
2022-10-06T01:42:39.194Z,989.65
2022-10-06T01:43:39.207Z,989.69
2022-10-06T01:44:39.179Z,989.73
2022-10-06T01:45:39.165Z,989.77
2022-10-06T01:46:39.238Z,989.75
2022-10-06T01:47:39.179Z,989.74
2022-10-06T01:48:39.138Z,989.76
2022-10-06T01:49:39.134Z,989.83
2022-10-06T01:50:39.122Z,989.85
2022-10-06T01:51:39.118Z,989.83
2022-10-06T01:53:46.128Z,989.89
2022-10-06T01:54:39.110Z,989.92
2022-10-06T01:55:39.095Z,989.94
2022-10-06T01:56:39.085Z,989.94
2022-10-06T01:57:39.075Z,989.97
2022-10-06T01:58:39.057Z,989.94
2022-10-06T01:59:39.065Z,989.99
2022-10-06T02:00:39.041Z,989.94
2022-10-06T02:01:39.122Z,990.05
2022-10-06T02:02:39.021Z,990.05
2022-10-06T02:03:39.014Z,990.06
2022-10-06T02:04:39.021Z,990.16
2022-10-06T02:05:38.988Z,990.17
2022-10-06T02:06:39.012Z,990.22
2022-10-06T02:07:38.980Z,990.15
2022-10-06T02:08:38.977Z,990.27
2022-10-06T02:09:38.988Z,990.26
2022-10-06T02:10:38.962Z,990.31
2022-10-06T02:11:38.945Z,990.33
2022-10-06T02:12:38.934Z,990.30
2022-10-06T02:13:38.931Z,990.35
2022-10-06T02:14:38.925Z,990.36
2022-10-06T02:15:39.004Z,990.36
2022-10-06T02:16:38.900Z,990.37
2022-10-06T02:17:38.896Z,990.40
2022-10-06T02:18:38.881Z,990.40
2022-10-06T02:19:38.879Z,990.41
2022-10-06T02:20:38.868Z,990.43
2022-10-06T02:21:38.886Z,990.44
2022-10-06T02:22:38.861Z,990.49
2022-10-06T02:23:38.851Z,990.54
2022-10-06T02:24:38.846Z,990.54
2022-10-06T02:25:38.829Z,990.60
2022-10-06T02:26:38.819Z,990.65
2022-10-06T02:27:38.821Z,990.66
2022-10-06T02:28:38.844Z,990.66
2022-10-06T02:29:38.803Z,990.70
2022-10-06T02:30:38.784Z,990.74
2022-10-06T02:31:38.856Z,990.75
2022-10-06T02:32:38.778Z,990.78
2022-10-06T02:33:38.765Z,990.85
2022-10-06T02:34:38.759Z,990.86
2022-10-06T02:35:38.740Z,990.89
2022-10-06T02:36:38.740Z,990.97
2022-10-06T02:37:38.752Z,990.95
2022-10-06T02:38:38.724Z,991.05
2022-10-06T02:39:38.723Z,991.02
2022-10-06T02:40:38.717Z,990.99
2022-10-06T02:41:38.703Z,991.06
2022-10-06T02:42:38.689Z,991.05
2022-10-06T02:43:38.709Z,991.04
2022-10-06T02:44:38.700Z,991.04
2022-10-06T02:45:38.664Z,991.05
2022-10-06T02:46:38.711Z,991.05
2022-10-06T02:47:38.657Z,991.04
2022-10-06T02:48:38.645Z,991.09
2022-10-06T02:49:38.658Z,991.09
2022-10-06T02:50:38.630Z,991.11
2022-10-06T02:51:38.624Z,991.15
2022-10-06T02:52:38.635Z,991.18
2022-10-06T02:53:38.598Z,991.17
2022-10-06T02:54:38.598Z,991.23
2022-10-06T02:55:38.592Z,991.25
2022-10-06T02:56:38.579Z,991.27
2022-10-06T02:57:38.569Z,991.31
2022-10-06T02:58:38.579Z,991.33
2022-10-06T02:59:38.546Z,991.35
2022-10-06T03:00:38.534Z,991.36
2022-10-06T03:01:38.668Z,991.37
2022-10-06T03:02:38.619Z,991.35
2022-10-06T03:03:38.508Z,991.34
2022-10-06T03:04:38.501Z,991.35
2022-10-06T03:05:38.511Z,991.35
2022-10-06T03:06:38.504Z,991.43
2022-10-06T03:07:38.477Z,991.46
2022-10-06T03:08:38.475Z,991.51
2022-10-06T03:09:38.463Z,991.59
2022-10-06T03:10:38.460Z,991.60
2022-10-06T03:11:38.475Z,991.63
2022-10-06T03:12:38.440Z,991.65
2022-10-06T03:13:38.437Z,991.69
2022-10-06T03:14:38.429Z,991.72
2022-10-06T03:15:38.419Z,991.74
2022-10-06T03:16:38.414Z,991.78
2022-10-06T03:17:38.420Z,991.73
2022-10-06T03:18:38.401Z,991.69
2022-10-06T03:19:38.383Z,991.68
2022-10-06T03:20:38.373Z,991.76
2022-10-06T03:21:38.375Z,991.85
2022-10-06T03:22:38.373Z,991.89
2022-10-06T03:23:38.367Z,991.91
2022-10-06T03:24:38.337Z,992.00
2022-10-06T03:25:38.334Z,991.99
2022-10-06T03:26:38.315Z,991.98
2022-10-06T03:27:38.330Z,991.97
2022-10-06T03:28:38.356Z,991.99
2022-10-06T03:29:38.297Z,992.02
2022-10-06T03:30:38.311Z,992.01
2022-10-06T03:31:38.343Z,992.04
2022-10-06T03:32:38.272Z,992.08
2022-10-06T03:33:38.269Z,992.10
2022-10-06T03:34:38.285Z,992.09
2022-10-06T03:35:38.268Z,992.03
2022-10-06T03:36:38.251Z,992.05
2022-10-06T03:37:38.229Z,992.10
2022-10-06T03:38:38.225Z,992.11
2022-10-06T03:39:38.226Z,992.13
2022-10-06T03:40:38.208Z,992.21
2022-10-06T03:41:38.216Z,992.23
2022-10-06T03:42:38.193Z,992.20
2022-10-06T03:43:38.172Z,992.22
2022-10-06T03:44:38.189Z,992.25
2022-10-06T03:45:38.199Z,992.28
2022-10-06T03:46:38.245Z,992.27
2022-10-06T03:47:38.140Z,992.29
2022-10-06T03:48:38.129Z,992.28
2022-10-06T03:49:38.123Z,992.30
2022-10-06T03:50:38.138Z,992.28
2022-10-06T03:51:38.111Z,992.30
2022-10-06T03:52:38.123Z,992.34
2022-10-06T03:53:38.085Z,992.36
2022-10-06T03:54:38.085Z,992.39
2022-10-06T03:55:38.074Z,992.42
2022-10-06T03:56:38.064Z,992.47
2022-10-06T03:57:38.053Z,992.48
2022-10-06T03:58:38.082Z,992.48
2022-10-06T03:59:38.042Z,992.49
2022-10-06T04:00:38.071Z,992.49
2022-10-06T04:01:38.108Z,992.48
2022-10-06T04:02:38.014Z,992.56
2022-10-06T04:03:38.021Z,992.60
2022-10-06T04:04:38.023Z,992.63
2022-10-06T04:05:37.990Z,992.64
2022-10-06T04:06:37.987Z,992.65
2022-10-06T04:07:37.998Z,992.65
2022-10-06T04:08:37.998Z,992.68
2022-10-06T04:09:37.965Z,992.71
2022-10-06T04:10:37.949Z,992.74
2022-10-06T04:11:37.948Z,992.77
2022-10-06T04:12:37.938Z,992.78
2022-10-06T04:13:37.931Z,992.76
2022-10-06T04:14:37.937Z,992.71
2022-10-06T04:15:37.904Z,992.71
2022-10-06T04:16:37.963Z,992.74
2022-10-06T04:17:37.896Z,992.75
2022-10-06T04:18:37.890Z,992.74
2022-10-06T04:19:37.884Z,992.74
2022-10-06T04:20:37.865Z,992.76
2022-10-06T04:21:37.859Z,992.78
2022-10-06T04:22:37.865Z,992.81
2022-10-06T04:23:37.837Z,992.82
2022-10-06T04:24:37.833Z,992.82
2022-10-06T04:25:37.817Z,992.84
2022-10-06T04:26:37.816Z,992.87
2022-10-06T04:27:37.835Z,992.92
2022-10-06T04:28:37.833Z,992.99
2022-10-06T04:29:37.793Z,992.97
2022-10-06T04:30:37.866Z,992.99
2022-10-06T04:31:37.835Z,993.07
2022-10-06T04:32:37.768Z,993.09
2022-10-06T04:33:37.774Z,993.07
2022-10-06T04:34:37.750Z,993.04
2022-10-06T04:35:37.732Z,993.02
2022-10-06T04:36:37.735Z,993.03
2022-10-06T04:37:37.737Z,993.08
2022-10-06T04:38:37.712Z,993.07
2022-10-06T04:39:37.719Z,993.08
2022-10-06T04:40:37.685Z,993.08
2022-10-06T04:41:37.684Z,993.08
2022-10-06T04:42:37.673Z,993.08
2022-10-06T04:43:37.672Z,993.08
2022-10-06T04:44:37.676Z,993.13
2022-10-06T04:45:37.675Z,993.09
2022-10-06T04:46:43.104Z,993.09
2022-10-06T04:47:38.643Z,993.13
2022-10-06T04:48:37.651Z,993.16
2022-10-06T04:49:37.622Z,993.18
2022-10-06T04:50:37.608Z,993.20
2022-10-06T04:51:37.603Z,993.21
2022-10-06T04:52:37.607Z,993.25
2022-10-06T04:53:37.585Z,993.30
2022-10-06T04:54:37.591Z,993.29
2022-10-06T04:55:37.573Z,993.31
2022-10-06T04:56:37.557Z,993.33
2022-10-06T04:57:37.545Z,993.35
2022-10-06T04:58:37.556Z,993.40
2022-10-06T04:59:37.531Z,993.40
2022-10-06T05:00:37.593Z,993.40
2022-10-06T05:01:37.525Z,993.47
2022-10-06T05:02:37.508Z,993.45
2022-10-06T05:03:37.491Z,993.47
2022-10-06T05:04:37.513Z,993.49
2022-10-06T05:05:37.481Z,993.48
2022-10-06T05:06:37.480Z,993.53
2022-10-06T05:07:37.476Z,993.57
2022-10-06T05:08:37.468Z,993.60
2022-10-06T05:09:37.444Z,993.59
2022-10-06T05:10:37.440Z,993.61
2022-10-06T05:11:37.443Z,993.66
2022-10-06T05:12:37.424Z,993.67
2022-10-06T05:13:37.423Z,993.71
2022-10-06T05:14:37.399Z,993.72
2022-10-06T05:15:37.392Z,993.71
2022-10-06T05:16:37.455Z,993.73
2022-10-06T05:17:37.406Z,993.74
2022-10-06T05:18:37.376Z,993.73
2022-10-06T05:19:37.389Z,993.74
2022-10-06T05:20:37.351Z,993.76
2022-10-06T05:21:37.350Z,993.78
2022-10-06T05:22:37.337Z,993.81
2022-10-06T05:23:37.333Z,993.82
2022-10-06T05:24:37.340Z,993.86
2022-10-06T05:25:37.300Z,993.91
2022-10-06T05:26:37.313Z,993.96
2022-10-06T05:27:37.298Z,994.00
2022-10-06T05:28:37.338Z,994.02
2022-10-06T05:29:37.280Z,994.01
2022-10-06T05:30:37.296Z,994.02
2022-10-06T05:31:37.288Z,994.01
2022-10-06T05:32:37.253Z,994.05
2022-10-06T05:33:37.241Z,994.10
2022-10-06T05:34:37.227Z,994.14
2022-10-06T05:35:37.244Z,994.19
2022-10-06T05:36:37.224Z,994.21
2022-10-06T05:37:37.225Z,994.24
2022-10-06T05:38:37.210Z,994.25
2022-10-06T05:39:37.189Z,994.25
2022-10-06T05:40:37.192Z,994.23
2022-10-06T05:41:37.194Z,994.25
2022-10-06T05:42:37.170Z,994.26
2022-10-06T05:43:37.168Z,994.29
2022-10-06T05:44:37.175Z,994.32
2022-10-06T05:45:37.200Z,994.31
2022-10-06T05:46:37.153Z,994.32
2022-10-06T05:47:37.178Z,994.34
2022-10-06T05:48:37.124Z,994.36
2022-10-06T05:49:37.117Z,994.36
2022-10-06T05:50:37.121Z,994.38
2022-10-06T05:51:37.096Z,994.37
2022-10-06T05:52:37.091Z,994.39
2022-10-06T05:53:37.098Z,994.42
2022-10-06T05:54:37.070Z,994.45
2022-10-06T05:55:37.054Z,994.46
2022-10-06T05:56:37.075Z,994.47
2022-10-06T05:57:37.038Z,994.49
2022-10-06T05:58:37.040Z,994.52
2022-10-06T05:59:37.062Z,994.56
2022-10-06T06:00:37.024Z,994.60
2022-10-06T06:01:37.120Z,994.63
2022-10-06T06:02:37.108Z,994.65
2022-10-06T06:03:36.983Z,994.66
2022-10-06T06:04:36.985Z,994.66
2022-10-06T06:05:36.995Z,994.68
2022-10-06T06:06:36.964Z,994.70
2022-10-06T06:07:36.961Z,994.71
2022-10-06T06:08:36.948Z,994.74
2022-10-06T06:09:37.055Z,994.76
2022-10-06T06:10:36.929Z,994.76
2022-10-06T06:11:36.932Z,994.74
2022-10-06T06:12:36.907Z,994.75
2022-10-06T06:13:36.903Z,994.75
2022-10-06T06:14:36.931Z,994.79
2022-10-06T06:15:36.875Z,994.81
2022-10-06T06:16:36.930Z,994.84
2022-10-06T06:17:36.867Z,994.86
2022-10-06T06:18:36.869Z,994.87
2022-10-06T06:19:36.855Z,994.87
2022-10-06T06:20:36.855Z,994.91
2022-10-06T06:21:36.844Z,994.95
2022-10-06T06:22:36.819Z,995.00
2022-10-06T06:23:36.807Z,995.03
2022-10-06T06:24:36.797Z,995.08
2022-10-06T06:25:36.859Z,995.09
2022-10-06T06:26:36.786Z,995.11
2022-10-06T06:27:36.767Z,995.10
2022-10-06T06:28:36.807Z,995.10
2022-10-06T06:29:36.752Z,995.14
2022-10-06T06:30:36.758Z,995.18
2022-10-06T06:31:36.790Z,995.21
2022-10-06T06:32:36.754Z,995.22
2022-10-06T06:33:36.722Z,995.20
2022-10-06T06:34:36.737Z,995.19
2022-10-06T06:35:36.705Z,995.19
2022-10-06T06:36:36.725Z,995.21
2022-10-06T06:37:36.687Z,995.25
2022-10-06T06:38:36.683Z,995.28
2022-10-06T06:39:36.674Z,995.29
2022-10-06T06:40:36.678Z,995.28
2022-10-06T06:41:36.654Z,995.27
2022-10-06T06:42:36.666Z,995.28
2022-10-06T06:43:36.640Z,995.29
2022-10-06T06:44:36.637Z,995.30
2022-10-06T06:45:36.620Z,995.34
2022-10-06T06:46:36.675Z,995.38
2022-10-06T06:47:36.613Z,995.39
2022-10-06T06:48:36.617Z,995.40
2022-10-06T06:49:36.613Z,995.42
2022-10-06T06:50:36.586Z,995.46
2022-10-06T06:51:36.581Z,995.51
2022-10-06T06:52:36.574Z,995.55
2022-10-06T06:53:36.568Z,995.59
2022-10-06T06:54:36.574Z,995.61
2022-10-06T06:55:36.569Z,995.60
2022-10-06T06:56:36.547Z,995.63
2022-10-06T06:57:36.555Z,995.64
2022-10-06T06:58:36.523Z,995.66
2022-10-06T06:59:36.536Z,995.66
2022-10-06T07:00:36.552Z,995.66
2022-10-06T07:01:36.656Z,995.65
2022-10-06T07:02:36.495Z,995.64
2022-10-06T07:03:56.765Z,995.66
2022-10-06T07:04:37.518Z,995.67
2022-10-06T07:05:36.467Z,995.71
2022-10-06T07:06:36.470Z,995.76
2022-10-06T07:07:36.459Z,995.76
2022-10-06T07:08:36.450Z,995.75
2022-10-06T07:09:36.464Z,995.75
2022-10-06T07:10:36.458Z,995.76
2022-10-06T07:11:36.434Z,995.78
2022-10-06T07:12:36.427Z,995.80
2022-10-06T07:13:36.409Z,995.84
2022-10-06T07:14:36.441Z,995.84
2022-10-06T07:15:36.443Z,995.86
2022-10-06T07:16:36.418Z,995.88
2022-10-06T07:17:36.390Z,995.90
2022-10-06T07:18:36.380Z,995.94
2022-10-06T07:19:36.372Z,995.95
2022-10-06T07:20:36.364Z,995.95
2022-10-06T07:21:36.356Z,995.97
2022-10-06T07:22:36.367Z,995.99
2022-10-06T07:23:36.380Z,996.01
2022-10-06T07:24:36.335Z,996.02
2022-10-06T07:25:36.328Z,996.02
2022-10-06T07:26:36.328Z,996.07
2022-10-06T07:27:36.325Z,996.08
2022-10-06T07:28:36.399Z,996.08
2022-10-06T07:29:36.299Z,996.08
2022-10-06T07:30:40.551Z,996.06
2022-10-06T07:31:36.355Z,996.07
2022-10-06T07:32:36.295Z,996.10
2022-10-06T07:33:36.274Z,996.09
2022-10-06T07:34:36.304Z,996.14
2022-10-06T07:35:36.270Z,996.12
2022-10-06T07:36:36.254Z,996.14
2022-10-06T07:37:36.252Z,996.16
2022-10-06T07:38:36.263Z,996.16
2022-10-06T07:39:36.233Z,996.18
2022-10-06T07:40:36.243Z,996.20
2022-10-06T07:41:36.220Z,996.23
2022-10-06T07:42:36.215Z,996.24
2022-10-06T07:43:36.220Z,996.25
2022-10-06T07:44:36.197Z,996.28
2022-10-06T07:45:36.308Z,996.30
2022-10-06T07:46:36.185Z,996.32
2022-10-06T07:47:36.183Z,996.34
2022-10-06T07:48:36.162Z,996.39
2022-10-06T07:49:36.175Z,996.42
2022-10-06T07:50:36.163Z,996.44
2022-10-06T07:51:36.173Z,996.46
2022-10-06T07:52:36.139Z,996.44
2022-10-06T07:53:36.128Z,996.43
2022-10-06T07:54:36.121Z,996.44
2022-10-06T07:55:36.131Z,996.46
2022-10-06T07:56:36.120Z,996.50
2022-10-06T07:57:36.106Z,996.58
2022-10-06T07:58:36.107Z,996.60
2022-10-06T07:59:36.088Z,996.56
2022-10-06T08:00:36.124Z,996.58
2022-10-06T08:01:36.125Z,996.58
2022-10-06T08:02:36.398Z,996.60
2022-10-06T08:03:36.069Z,996.63
2022-10-06T08:04:36.057Z,996.66
2022-10-06T08:05:36.050Z,996.63
2022-10-06T08:06:36.067Z,996.61
2022-10-06T08:07:36.038Z,996.64
2022-10-06T08:08:36.028Z,996.65
2022-10-06T08:09:36.011Z,996.66
2022-10-06T08:10:36.014Z,996.69
2022-10-06T08:11:35.996Z,996.72
2022-10-06T08:12:36.091Z,996.75
2022-10-06T08:13:35.983Z,996.79
2022-10-06T08:14:35.982Z,996.82
2022-10-06T08:15:35.982Z,996.83
2022-10-06T08:16:36.022Z,996.82
2022-10-06T08:17:35.953Z,996.87
2022-10-06T08:18:51.277Z,996.89
2022-10-06T08:19:36.937Z,996.92
2022-10-06T08:20:35.957Z,996.94
2022-10-06T08:21:35.974Z,996.95
2022-10-06T08:22:35.912Z,996.94
2022-10-06T08:23:42.932Z,996.96
2022-10-06T08:25:01.043Z,996.98
2022-10-06T08:25:36.898Z,997.00
2022-10-06T08:26:35.898Z,997.02
2022-10-06T08:27:35.903Z,997.04
2022-10-06T08:28:35.938Z,997.05
2022-10-06T08:29:35.861Z,997.06
2022-10-06T08:30:35.859Z,997.07
2022-10-06T08:31:35.876Z,997.10
2022-10-06T08:32:35.835Z,997.12
2022-10-06T08:33:35.857Z,997.13
2022-10-06T08:34:35.828Z,997.11
2022-10-06T08:35:35.820Z,997.11
2022-10-06T08:36:35.820Z,997.15
2022-10-06T08:37:35.808Z,997.15
2022-10-06T08:38:35.841Z,997.15
2022-10-06T08:39:35.790Z,997.13
2022-10-06T08:40:35.806Z,997.12
2022-10-06T08:41:35.783Z,997.11
2022-10-06T08:42:35.778Z,997.16
2022-10-06T08:43:35.759Z,997.17
2022-10-06T08:44:35.756Z,997.16
2022-10-06T08:45:38.731Z,997.21
2022-10-06T08:46:35.754Z,997.24
2022-10-06T08:47:35.761Z,997.26
2022-10-06T08:48:35.763Z,997.28
2022-10-06T08:49:35.742Z,997.28
2022-10-06T08:50:35.711Z,997.30
2022-10-06T08:51:35.732Z,997.28
2022-10-06T08:52:35.735Z,997.27
2022-10-06T08:53:35.691Z,997.26
2022-10-06T08:54:35.688Z,997.28
2022-10-06T08:55:35.670Z,997.29
2022-10-06T08:56:35.669Z,997.30
2022-10-06T08:57:35.663Z,997.30
2022-10-06T08:58:35.681Z,997.28
2022-10-06T08:59:35.669Z,997.26
2022-10-06T09:00:35.644Z,997.25
2022-10-06T09:01:35.675Z,997.24
2022-10-06T09:02:35.697Z,997.32
2022-10-06T09:03:35.623Z,997.32
2022-10-06T09:04:35.649Z,997.36
2022-10-06T09:05:35.624Z,997.36
2022-10-06T09:06:35.645Z,997.39
2022-10-06T09:07:35.610Z,997.34
2022-10-06T09:08:35.585Z,997.36
2022-10-06T09:09:35.593Z,997.36
2022-10-06T09:10:35.605Z,997.36
2022-10-06T09:11:35.583Z,997.39
2022-10-06T09:12:35.558Z,997.41
2022-10-06T09:13:35.568Z,997.42
2022-10-06T09:14:35.564Z,997.43
2022-10-06T09:15:35.538Z,997.43
2022-10-06T09:16:35.589Z,997.45
2022-10-06T09:17:35.527Z,997.47
2022-10-06T09:19:07.612Z,997.51
2022-10-06T09:19:36.520Z,997.54
2022-10-06T09:20:35.512Z,997.56
2022-10-06T09:21:35.534Z,997.60
2022-10-06T09:22:35.488Z,997.63
2022-10-06T09:23:35.478Z,997.65
2022-10-06T09:24:35.473Z,997.67
2022-10-06T09:25:35.475Z,997.67
2022-10-06T09:26:36.168Z,997.69
2022-10-06T09:27:35.464Z,997.67
2022-10-06T09:28:35.483Z,997.70
2022-10-06T09:29:35.440Z,997.72
2022-10-06T09:30:35.443Z,997.71
2022-10-06T09:31:35.449Z,997.71
2022-10-06T09:32:35.416Z,997.70
2022-10-06T09:33:35.425Z,997.73
2022-10-06T09:34:35.408Z,997.68
2022-10-06T09:35:35.401Z,997.69
2022-10-06T09:36:35.390Z,997.64
2022-10-06T09:37:35.377Z,997.58
2022-10-06T09:38:35.392Z,997.63
2022-10-06T09:39:35.375Z,997.66
2022-10-06T09:40:35.391Z,997.68
2022-10-06T09:41:35.352Z,997.65
2022-10-06T09:42:35.345Z,997.65
2022-10-06T09:43:35.326Z,997.65
2022-10-06T09:44:35.382Z,997.68
2022-10-06T09:45:35.312Z,997.66
2022-10-06T09:46:35.318Z,997.63
2022-10-06T09:47:35.291Z,997.65
2022-10-06T09:48:35.289Z,997.68
2022-10-06T09:49:35.286Z,997.68
2022-10-06T09:50:35.303Z,997.71
2022-10-06T09:51:35.273Z,997.71
2022-10-06T09:52:35.259Z,997.73
2022-10-06T09:53:37.646Z,997.74
2022-10-06T09:54:35.245Z,997.75
2022-10-06T09:55:35.249Z,997.77
2022-10-06T09:56:35.232Z,997.82
2022-10-06T09:57:35.213Z,997.82
2022-10-06T09:58:35.202Z,997.81
2022-10-06T09:59:39.985Z,997.81
2022-10-06T10:00:35.310Z,997.83
2022-10-06T10:01:35.218Z,997.79
2022-10-06T10:02:35.245Z,997.81
2022-10-06T10:03:35.169Z,997.81
2022-10-06T10:04:35.168Z,997.78
2022-10-06T10:05:35.151Z,997.81
2022-10-06T10:06:35.157Z,997.81
2022-10-06T10:07:35.161Z,997.80
2022-10-06T10:09:35.139Z,997.87
2022-10-06T10:10:35.130Z,997.86
2022-10-06T10:11:35.129Z,997.86
2022-10-06T10:12:35.105Z,997.87
2022-10-06T10:13:35.101Z,997.82
2022-10-06T10:14:35.118Z,997.83
2022-10-06T10:15:35.088Z,997.85
2022-10-06T10:16:35.185Z,997.87
2022-10-06T10:17:35.099Z,997.87
2022-10-06T10:18:35.057Z,997.87
2022-10-06T10:19:35.049Z,997.87
2022-10-06T10:20:35.052Z,997.86
2022-10-06T10:21:35.046Z,997.84
2022-10-06T10:22:35.060Z,997.83
2022-10-06T10:23:35.045Z,997.83
2022-10-06T10:24:35.022Z,997.81
2022-10-06T10:25:35.001Z,997.80
2022-10-06T10:26:35.010Z,997.77
2022-10-06T10:27:35.001Z,997.81
2022-10-06T10:28:35.096Z,997.82
2022-10-06T10:29:34.977Z,997.84
2022-10-06T10:30:34.972Z,997.86
2022-10-06T10:31:34.985Z,997.88
2022-10-06T10:32:34.954Z,997.89
2022-10-06T10:33:34.977Z,997.91
2022-10-06T10:34:34.945Z,997.89
2022-10-06T10:35:34.931Z,997.89
2022-10-06T10:36:34.937Z,997.91
2022-10-06T10:37:34.918Z,997.93
2022-10-06T10:38:34.923Z,997.94
2022-10-06T10:39:34.926Z,997.96
2022-10-06T10:40:34.902Z,997.95
2022-10-06T10:41:34.888Z,997.94
2022-10-06T10:42:34.888Z,997.95
2022-10-06T10:43:34.878Z,997.98
2022-10-06T10:44:34.897Z,997.98
2022-10-06T10:45:34.879Z,997.98
2022-10-06T10:46:34.943Z,997.99
2022-10-06T10:47:34.878Z,997.99
2022-10-06T10:48:34.848Z,998.01
2022-10-06T10:49:34.832Z,997.97
2022-10-06T10:50:34.874Z,997.97
2022-10-06T10:51:34.817Z,997.97
2022-10-06T10:52:34.814Z,997.97
2022-10-06T10:53:36.579Z,997.95
2022-10-06T10:54:34.824Z,997.95
2022-10-06T10:55:34.796Z,997.95
2022-10-06T10:56:34.817Z,997.97
2022-10-06T10:57:34.777Z,997.92
2022-10-06T10:58:34.793Z,997.94
2022-10-06T10:59:34.762Z,997.94
2022-10-06T11:00:34.816Z,997.93
2022-10-06T11:01:34.819Z,997.91
2022-10-06T11:02:34.768Z,997.93
2022-10-06T11:03:34.775Z,997.90
2022-10-06T11:04:34.735Z,997.89
2022-10-06T11:05:34.720Z,997.92
2022-10-06T11:06:34.723Z,997.90
2022-10-06T11:07:34.729Z,997.88
2022-10-06T11:08:34.700Z,997.93
2022-10-06T11:09:34.700Z,997.94
2022-10-06T11:10:34.688Z,997.86
2022-10-06T11:11:34.688Z,997.87
2022-10-06T11:12:34.700Z,997.91
2022-10-06T11:13:34.678Z,997.93
2022-10-06T11:14:34.704Z,997.91
2022-10-06T11:15:34.652Z,997.89
2022-10-06T11:16:34.704Z,997.92
2022-10-06T11:17:34.634Z,997.90
2022-10-06T11:18:34.643Z,997.90
2022-10-06T11:19:34.630Z,997.92
2022-10-06T11:20:34.611Z,997.93
2022-10-06T11:21:34.630Z,997.97
2022-10-06T11:22:34.602Z,997.91
2022-10-06T11:23:34.595Z,997.93
2022-10-06T11:24:34.591Z,997.92
2022-10-06T11:25:35.243Z,997.93
2022-10-06T11:26:34.572Z,997.98
2022-10-06T11:27:34.592Z,997.94
2022-10-06T11:28:34.623Z,997.97
2022-10-06T11:29:34.552Z,997.97
2022-10-06T11:30:34.549Z,997.98
2022-10-06T11:31:34.602Z,997.99
2022-10-06T11:32:34.522Z,998.03
2022-10-06T11:33:34.525Z,998.00
2022-10-06T11:34:34.505Z,997.96
2022-10-06T11:35:34.512Z,997.98
2022-10-06T11:36:34.502Z,998.04
2022-10-06T11:37:34.490Z,997.96
2022-10-06T11:38:34.489Z,997.93
2022-10-06T11:39:34.490Z,997.95
2022-10-06T11:40:34.467Z,997.97
2022-10-06T11:41:34.463Z,997.92
2022-10-06T11:42:34.457Z,997.86
2022-10-06T11:43:34.452Z,997.92
2022-10-06T11:44:34.456Z,997.90
2022-10-06T11:45:34.528Z,997.91
2022-10-06T11:46:35.746Z,997.90
2022-10-06T11:47:35.596Z,997.88
2022-10-06T11:48:34.411Z,997.88
2022-10-06T11:49:34.405Z,997.94
2022-10-06T11:50:34.421Z,997.91
2022-10-06T11:51:34.377Z,997.91
2022-10-06T11:52:34.401Z,997.89
2022-10-06T11:53:34.368Z,997.86
2022-10-06T11:54:34.364Z,997.90
2022-10-06T11:55:34.352Z,997.87
2022-10-06T11:56:34.352Z,997.89
2022-10-06T11:57:34.365Z,997.89
2022-10-06T11:58:42.595Z,997.88
2022-10-06T11:59:35.336Z,997.86
2022-10-06T12:00:34.328Z,997.87
2022-10-06T12:01:34.328Z,997.86
2022-10-06T12:02:34.419Z,997.84
2022-10-06T12:03:34.300Z,997.84
2022-10-06T12:04:34.307Z,997.88
2022-10-06T12:05:56.252Z,997.86
2022-10-06T12:06:35.284Z,997.86
2022-10-06T12:07:34.264Z,997.85
2022-10-06T12:08:34.272Z,997.84
2022-10-06T12:09:34.272Z,997.86
2022-10-06T12:10:34.279Z,997.84
2022-10-06T12:11:34.237Z,997.81
2022-10-06T12:12:34.234Z,997.80
2022-10-06T12:17:35.193Z,997.75
2022-10-06T12:18:34.189Z,997.78
2022-10-06T12:19:34.188Z,997.79
2022-10-06T12:20:34.189Z,997.77
2022-10-06T12:21:34.166Z,997.78
2022-10-06T12:22:34.154Z,997.76
2022-10-06T12:23:34.158Z,997.71
2022-10-06T12:24:34.160Z,997.77
2022-10-06T12:25:34.140Z,997.79
2022-10-06T12:26:34.172Z,997.76
2022-10-06T12:27:34.128Z,997.80
2022-10-06T12:28:34.182Z,997.78
2022-10-06T12:29:34.121Z,997.77
2022-10-06T12:30:34.165Z,997.79
2022-10-06T12:31:34.095Z,997.78
2022-10-06T12:32:34.126Z,997.80
2022-10-06T12:33:34.075Z,997.78
2022-10-06T12:34:34.077Z,997.77